createdAt,value
2023-01-31T00:01:58.327Z,6.40
2023-01-31T00:04:27.899Z,6.50
2023-01-31T00:06:55.896Z,6.50
2023-01-31T00:09:23.964Z,6.50
2023-01-31T00:11:52.004Z,6.40
2023-01-31T00:14:21.294Z,6.40
2023-01-31T00:16:49.760Z,6.50
2023-01-31T00:19:17.965Z,6.50
2023-01-31T00:21:47.350Z,6.30
2023-01-31T00:24:16.453Z,6.40
2023-01-31T00:26:44.568Z,6.40
2023-01-31T00:29:12.817Z,6.40
2023-01-31T00:31:41.190Z,6.30
2023-01-31T00:34:09.462Z,6.30
2023-01-31T00:36:38.075Z,6.30
2023-01-31T00:39:11.498Z,6.30
2023-01-31T00:41:39.775Z,6.40
2023-01-31T00:44:08.262Z,6.30
2023-01-31T00:46:36.826Z,6.30
2023-01-31T00:49:05.947Z,6.30
2023-01-31T00:51:34.495Z,6.30
2023-01-31T00:54:03.109Z,6.30
2023-01-31T00:56:32.469Z,6.30
2023-01-31T00:59:00.548Z,6.30
2023-01-31T01:01:30.321Z,6.30
2023-01-31T01:03:59.083Z,6.30
2023-01-31T01:06:27.828Z,6.30
2023-01-31T01:08:59.833Z,6.20
2023-01-31T01:11:30.368Z,6.20
2023-01-31T01:14:01.080Z,6.20
2023-01-31T01:16:33.131Z,6.20
2023-01-31T01:19:03.097Z,6.10
2023-01-31T01:21:39.612Z,6.10
2023-01-31T01:24:09.609Z,6.10
2023-01-31T01:26:40.316Z,6.10
2023-01-31T01:29:10.340Z,6.20
2023-01-31T01:31:39.361Z,6.20
2023-01-31T01:34:09.509Z,6.20
2023-01-31T01:36:39.419Z,6.30
2023-01-31T01:39:09.723Z,6.20
2023-01-31T01:41:38.570Z,6.20
2023-01-31T01:44:48.770Z,6.30
2023-01-31T01:47:23.273Z,6.20
2023-01-31T01:49:55.856Z,6.20
2023-01-31T01:52:25.583Z,6.30
2023-01-31T01:54:57.333Z,6.20
2023-01-31T01:57:29.211Z,6.20
2023-01-31T02:00:05.555Z,6.20
2023-01-31T02:02:44.161Z,6.20
2023-01-31T02:05:16.028Z,6.10
2023-01-31T02:07:44.216Z,6.10
2023-01-31T02:10:16.922Z,6.10
2023-01-31T02:12:45.260Z,6.20
2023-01-31T02:15:15.083Z,6.10
2023-01-31T02:17:43.226Z,6.20
2023-01-31T02:20:26.585Z,6.10
2023-01-31T02:23:10.790Z,6.20
2023-01-31T02:26:04.055Z,6.10
2023-01-31T02:29:00.428Z,6.10
2023-01-31T02:32:16.420Z,6.30
2023-01-31T02:34:54.987Z,6.20
2023-01-31T02:37:30.434Z,6.00
2023-01-31T02:40:12.295Z,6.00
2023-01-31T02:42:50.054Z,6.00
2023-01-31T02:45:23.857Z,6.00
2023-01-31T02:48:04.663Z,6.10
2023-01-31T02:50:42.094Z,6.10
2023-01-31T02:53:16.178Z,6.10
2023-01-31T02:56:08.204Z,6.10
2023-01-31T02:58:39.977Z,6.00
2023-01-31T03:01:11.436Z,6.10
2023-01-31T03:03:39.643Z,6.10
2023-01-31T03:06:35.693Z,6.10
2023-01-31T03:09:08.580Z,6.00
2023-01-31T03:11:44.645Z,6.00
2023-01-31T03:14:21.588Z,5.90
2023-01-31T03:17:13.793Z,5.90
2023-01-31T03:19:48.079Z,5.90
2023-01-31T03:22:24.069Z,5.90
2023-01-31T03:24:53.186Z,5.90
2023-01-31T03:27:21.869Z,5.80
2023-01-31T03:29:58.444Z,5.90
2023-01-31T03:32:31.837Z,5.80
2023-01-31T03:35:00.114Z,5.90
2023-01-31T03:37:38.166Z,5.90
2023-01-31T03:40:17.661Z,5.80
2023-01-31T03:42:58.539Z,5.80
2023-01-31T03:45:33.275Z,5.90
2023-01-31T03:48:03.979Z,5.80
2023-01-31T03:50:40.414Z,5.80
2023-01-31T03:53:12.584Z,5.70
2023-01-31T03:55:44.549Z,5.70
2023-01-31T03:58:15.339Z,5.70
2023-01-31T04:00:45.900Z,5.70
2023-01-31T04:03:19.422Z,5.70
2023-01-31T04:05:49.119Z,5.60
2023-01-31T04:08:18.925Z,5.70
2023-01-31T04:10:56.019Z,5.60
2023-01-31T04:13:24.351Z,5.60
2023-01-31T04:15:52.397Z,5.70
2023-01-31T04:18:20.411Z,5.70
2023-01-31T04:20:48.471Z,5.70
2023-01-31T04:23:18.810Z,5.70
2023-01-31T04:25:47.237Z,5.70
2023-01-31T04:28:15.365Z,5.80
2023-01-31T04:30:43.368Z,5.70
2023-01-31T04:33:11.857Z,5.80
2023-01-31T04:35:41.163Z,5.70
2023-01-31T04:38:09.183Z,5.70
2023-01-31T04:40:38.543Z,5.70
2023-01-31T04:43:06.601Z,5.60
2023-01-31T04:45:34.823Z,5.70
2023-01-31T04:48:02.967Z,5.60
2023-01-31T04:50:31.743Z,5.60
2023-01-31T04:52:59.779Z,5.60
2023-01-31T04:55:27.881Z,5.50
2023-01-31T04:57:57.291Z,5.40
2023-01-31T05:00:25.449Z,5.40
2023-01-31T05:02:54.275Z,5.40
2023-01-31T05:05:22.812Z,5.40
2023-01-31T05:07:50.868Z,5.30
2023-01-31T05:10:19.155Z,5.30
2023-01-31T05:12:47.817Z,5.30
2023-01-31T05:15:17.345Z,5.30
2023-01-31T05:17:45.390Z,5.20
2023-01-31T05:20:13.469Z,5.20
2023-01-31T05:22:41.506Z,5.30
2023-01-31T05:25:10.068Z,5.20
2023-01-31T05:27:38.085Z,5.30
2023-01-31T05:30:07.415Z,5.20
2023-01-31T05:32:37.675Z,5.10
2023-01-31T05:35:06.208Z,5.10
2023-01-31T05:37:34.222Z,5.20
2023-01-31T05:40:02.270Z,5.20
2023-01-31T05:42:30.301Z,5.20
2023-01-31T05:44:58.295Z,5.10
2023-01-31T05:47:26.341Z,5.10
2023-01-31T05:49:55.697Z,5.10
2023-01-31T05:52:23.766Z,5.10
2023-01-31T05:54:51.780Z,4.90
2023-01-31T05:57:19.889Z,4.90
2023-01-31T05:59:48.098Z,4.90
2023-01-31T06:02:16.181Z,4.80
2023-01-31T06:04:44.273Z,5.00
2023-01-31T06:07:13.914Z,5.00
2023-01-31T06:09:42.145Z,5.00
2023-01-31T06:12:14.491Z,4.90
2023-01-31T06:14:42.634Z,5.00
2023-01-31T06:17:10.661Z,5.00
2023-01-31T06:19:38.816Z,4.90
2023-01-31T06:22:07.197Z,4.90
2023-01-31T06:24:36.704Z,4.90
2023-01-31T06:27:04.843Z,4.90
2023-01-31T06:29:32.961Z,5.00
2023-01-31T06:32:00.979Z,5.00
2023-01-31T06:34:28.986Z,5.00
2023-01-31T06:36:58.943Z,4.90
2023-01-31T06:39:26.964Z,4.90
2023-01-31T06:41:56.591Z,4.90
2023-01-31T06:44:26.537Z,4.90
2023-01-31T06:46:54.825Z,4.80
2023-01-31T06:49:22.865Z,4.90
2023-01-31T06:51:50.934Z,5.00
2023-01-31T06:54:18.978Z,5.00
2023-01-31T06:56:47.375Z,5.00
2023-01-31T06:59:16.823Z,5.10
2023-01-31T07:01:44.911Z,5.10
2023-01-31T07:04:13.034Z,5.20
2023-01-31T07:06:41.089Z,5.20
2023-01-31T07:09:09.199Z,5.10
2023-01-31T07:11:38.392Z,5.10
2023-01-31T07:14:06.603Z,5.10
2023-01-31T07:16:37.982Z,5.10
2023-01-31T07:19:06.406Z,5.10
2023-01-31T07:21:35.990Z,5.00
2023-01-31T07:24:04.300Z,5.00
2023-01-31T07:26:32.524Z,5.10
2023-01-31T07:29:00.621Z,5.10
2023-01-31T07:31:28.728Z,5.10
2023-01-31T07:33:58.104Z,5.20
2023-01-31T07:36:26.598Z,5.20
2023-01-31T07:38:55.533Z,5.20
2023-01-31T07:41:23.980Z,5.30
2023-01-31T07:43:52.188Z,5.30
2023-01-31T07:46:20.451Z,5.30
2023-01-31T07:48:48.488Z,5.30
2023-01-31T07:51:17.897Z,5.40
2023-01-31T07:53:46.093Z,5.30
2023-01-31T07:56:15.798Z,5.40
2023-01-31T07:58:45.544Z,5.40
2023-01-31T08:01:34.107Z,5.50
2023-01-31T08:04:18.306Z,5.50
2023-01-31T08:06:50.321Z,5.60
2023-01-31T08:09:18.388Z,5.70
2023-01-31T08:11:46.447Z,5.80
2023-01-31T08:14:14.441Z,5.70
2023-01-31T08:16:42.473Z,5.70
2023-01-31T08:19:10.522Z,5.70
2023-01-31T08:21:38.539Z,5.70
2023-01-31T08:24:08.748Z,5.70
2023-01-31T08:26:36.879Z,5.60
2023-01-31T08:29:04.985Z,5.60
2023-01-31T08:31:33.070Z,5.70
2023-01-31T08:34:01.169Z,5.60
2023-01-31T08:36:31.766Z,5.60
2023-01-31T08:39:00.551Z,5.50
2023-01-31T08:41:31.618Z,5.50
2023-01-31T08:44:00.645Z,5.60
2023-01-31T08:46:32.445Z,5.60
2023-01-31T08:49:01.715Z,5.60
2023-01-31T08:51:30.326Z,5.70
2023-01-31T08:53:58.760Z,5.70
2023-01-31T08:56:27.856Z,5.80
2023-01-31T08:58:58.638Z,5.80
2023-01-31T09:01:26.709Z,5.80
2023-01-31T09:03:57.022Z,5.80
2023-01-31T09:06:27.336Z,5.90
2023-01-31T09:08:56.847Z,5.80
2023-01-31T09:11:25.096Z,5.90
2023-01-31T09:13:53.157Z,5.90
2023-01-31T09:16:22.762Z,6.00
2023-01-31T09:18:51.603Z,6.00
2023-01-31T09:21:21.358Z,6.20
2023-01-31T09:23:50.176Z,6.10
2023-01-31T09:26:18.238Z,6.10
2023-01-31T09:28:46.327Z,6.00
2023-01-31T09:31:16.815Z,6.00
2023-01-31T09:33:46.252Z,6.00
2023-01-31T09:36:16.397Z,6.10
2023-01-31T09:38:44.919Z,6.10
2023-01-31T09:41:24.601Z,6.10
2023-01-31T09:43:56.188Z,6.10
2023-01-31T09:46:29.740Z,6.00
2023-01-31T09:49:02.621Z,6.00
2023-01-31T09:51:30.813Z,5.80
2023-01-31T09:53:59.069Z,5.90
2023-01-31T09:56:35.237Z,5.90
2023-01-31T09:59:12.907Z,5.80
2023-01-31T10:01:49.572Z,5.90
2023-01-31T10:04:44.022Z,6.00
2023-01-31T10:07:16.471Z,6.00
2023-01-31T10:09:47.443Z,5.90
2023-01-31T10:12:19.946Z,5.90
2023-01-31T10:14:52.261Z,5.90
2023-01-31T10:17:23.990Z,5.90
2023-01-31T10:19:56.958Z,5.90
2023-01-31T10:22:33.114Z,5.90
2023-01-31T10:25:18.925Z,5.90
2023-01-31T10:27:50.319Z,5.90
2023-01-31T10:30:22.220Z,5.70
2023-01-31T10:32:54.211Z,5.70
2023-01-31T10:35:28.026Z,5.70
2023-01-31T10:38:01.557Z,5.70
2023-01-31T10:40:36.446Z,5.80
2023-01-31T10:43:14.278Z,5.80
2023-01-31T10:45:42.765Z,5.90
2023-01-31T10:48:17.177Z,5.80
2023-01-31T10:50:58.211Z,5.90
2023-01-31T10:53:44.964Z,5.80
2023-01-31T10:56:20.473Z,5.80
2023-01-31T10:58:49.290Z,5.80
2023-01-31T11:01:17.365Z,5.80
2023-01-31T11:03:50.564Z,5.80
2023-01-31T11:06:21.056Z,5.90
2023-01-31T11:08:51.497Z,5.80
2023-01-31T11:11:21.493Z,5.80
2023-01-31T11:13:58.526Z,5.80
2023-01-31T11:16:28.573Z,5.80
2023-01-31T11:18:56.693Z,5.80
2023-01-31T11:21:28.125Z,5.80
2023-01-31T11:24:02.616Z,5.80
2023-01-31T11:26:34.397Z,5.90
2023-01-31T11:29:08.167Z,5.80
2023-01-31T11:31:42.594Z,5.80
2023-01-31T11:34:22.129Z,5.90
2023-01-31T11:36:51.671Z,5.90
2023-01-31T11:39:26.968Z,5.80
2023-01-31T11:41:55.173Z,5.90
2023-01-31T11:44:24.329Z,5.90
2023-01-31T11:46:55.160Z,5.90
2023-01-31T11:49:29.716Z,5.90
2023-01-31T11:52:01.236Z,5.90
2023-01-31T11:54:33.427Z,6.00
2023-01-31T11:57:02.427Z,6.00
2023-01-31T11:59:32.218Z,6.10
2023-01-31T12:02:03.023Z,6.00
2023-01-31T12:04:34.988Z,5.90
2023-01-31T12:07:07.152Z,6.00
2023-01-31T12:09:43.712Z,6.00
2023-01-31T12:12:30.035Z,6.00
2023-01-31T12:15:03.089Z,6.00
2023-01-31T12:17:36.519Z,6.00
2023-01-31T12:20:28.198Z,6.00
2023-01-31T12:23:12.510Z,6.00
2023-01-31T12:25:52.852Z,6.00
2023-01-31T12:28:34.169Z,6.10
2023-01-31T12:31:13.183Z,6.10
2023-01-31T12:33:58.252Z,6.20
2023-01-31T12:36:40.656Z,6.10
2023-01-31T12:39:24.074Z,6.10
2023-01-31T12:42:06.253Z,6.10
2023-01-31T12:44:44.824Z,6.20
2023-01-31T12:47:33.027Z,6.20
2023-01-31T12:50:14.176Z,6.20
2023-01-31T12:52:52.199Z,6.20
2023-01-31T12:55:29.754Z,6.20
2023-01-31T12:58:11.582Z,6.20
2023-01-31T13:00:51.115Z,6.20
2023-01-31T13:03:53.851Z,6.20
2023-01-31T13:06:25.525Z,6.20
2023-01-31T13:09:07.786Z,6.30
2023-01-31T13:11:42.127Z,6.30
2023-01-31T13:14:16.332Z,6.30
2023-01-31T13:16:46.754Z,6.20
2023-01-31T13:19:20.667Z,6.30
2023-01-31T13:21:53.223Z,6.30
2023-01-31T13:24:25.405Z,6.30
2023-01-31T13:27:01.840Z,6.30
2023-01-31T13:29:34.409Z,6.30
2023-01-31T13:32:07.721Z,6.40
2023-01-31T13:34:41.923Z,6.40
2023-01-31T13:37:13.583Z,6.40
2023-01-31T13:39:45.100Z,6.30
2023-01-31T13:42:16.862Z,6.30
2023-01-31T13:44:46.848Z,6.30
2023-01-31T13:47:18.415Z,6.30
2023-01-31T13:49:51.264Z,6.30
2023-01-31T13:52:25.844Z,6.30
2023-01-31T13:54:58.156Z,6.30
2023-01-31T13:57:30.466Z,6.30
2023-01-31T14:00:07.581Z,6.20
2023-01-31T14:02:38.394Z,6.20
2023-01-31T14:05:09.288Z,6.20
2023-01-31T14:07:37.312Z,6.20
2023-01-31T14:10:30.348Z,6.20
2023-01-31T14:13:37.681Z,6.20
2023-01-31T14:16:35.378Z,6.20
2023-01-31T14:19:03.875Z,6.20
2023-01-31T14:21:52.394Z,6.20
2023-01-31T14:24:43.012Z,6.20
2023-01-31T14:27:19.916Z,6.20
2023-01-31T14:29:55.777Z,6.20
2023-01-31T14:32:32.136Z,6.20
2023-01-31T14:35:07.125Z,6.20
2023-01-31T14:37:46.185Z,6.20
2023-01-31T14:40:25.047Z,6.30
2023-01-31T14:43:26.381Z,6.20
2023-01-31T14:46:13.906Z,6.30
2023-01-31T14:49:22.570Z,6.30
2023-01-31T14:52:08.643Z,6.30
2023-01-31T14:54:49.451Z,6.30
2023-01-31T14:57:20.523Z,6.30
2023-01-31T14:59:57.094Z,6.30
2023-01-31T15:02:45.829Z,6.30
2023-01-31T15:05:16.973Z,6.30
2023-01-31T15:08:02.873Z,6.30
2023-01-31T15:10:58.010Z,6.30
2023-01-31T15:13:42.388Z,6.40
2023-01-31T15:16:18.987Z,6.40
2023-01-31T15:18:51.166Z,6.30
2023-01-31T15:21:27.325Z,6.40
2023-01-31T15:23:56.170Z,6.40
2023-01-31T15:26:27.331Z,6.40
2023-01-31T15:28:55.856Z,6.30
2023-01-31T15:31:31.711Z,6.40
2023-01-31T15:34:04.953Z,6.40
2023-01-31T15:36:36.564Z,6.40
2023-01-31T15:39:19.300Z,6.40
2023-01-31T15:41:47.530Z,6.40
2023-01-31T15:44:19.512Z,6.40
2023-01-31T15:46:50.057Z,6.40
2023-01-31T15:49:43.091Z,6.40
2023-01-31T15:52:16.118Z,6.40
2023-01-31T15:54:57.921Z,6.40
2023-01-31T15:57:29.841Z,6.40
2023-01-31T15:59:58.564Z,6.40
2023-01-31T16:02:30.611Z,6.40
2023-01-31T16:04:58.915Z,6.40
2023-01-31T16:07:31.278Z,6.30
2023-01-31T16:10:01.895Z,6.40
2023-01-31T16:12:32.168Z,6.40
2023-01-31T16:15:05.946Z,6.40
2023-01-31T16:17:35.912Z,6.40
2023-01-31T16:20:05.516Z,6.40
2023-01-31T16:22:33.584Z,6.40
2023-01-31T16:25:03.925Z,6.40
2023-01-31T16:27:36.944Z,6.40
2023-01-31T16:30:06.381Z,6.40
2023-01-31T16:32:40.244Z,6.40
2023-01-31T16:35:19.830Z,6.40
2023-01-31T16:37:51.934Z,6.40
2023-01-31T16:40:22.994Z,6.40
2023-01-31T16:42:51.064Z,6.40
2023-01-31T16:45:30.236Z,6.40
2023-01-31T16:48:20.334Z,6.40
2023-01-31T16:50:48.767Z,6.40
2023-01-31T16:53:26.386Z,6.40
2023-01-31T16:56:19.915Z,6.40
2023-01-31T16:58:51.389Z,6.40
2023-01-31T17:01:23.298Z,6.40
2023-01-31T17:04:15.231Z,6.40
2023-01-31T17:06:43.685Z,6.40
2023-01-31T17:09:19.789Z,6.40
2023-01-31T17:11:48.038Z,6.40
2023-01-31T17:14:16.076Z,6.50
2023-01-31T17:16:44.064Z,6.40
2023-01-31T17:19:13.572Z,6.40
2023-01-31T17:21:42.943Z,6.40
2023-01-31T17:24:14.077Z,6.40
2023-01-31T17:26:42.675Z,6.40
2023-01-31T17:29:11.025Z,6.40
2023-01-31T17:31:39.352Z,6.40
2023-01-31T17:34:14.222Z,6.40
2023-01-31T17:36:42.668Z,6.40
2023-01-31T17:39:10.797Z,6.40
2023-01-31T17:41:41.164Z,6.40
2023-01-31T17:44:14.073Z,6.40
2023-01-31T17:46:43.062Z,6.40
2023-01-31T17:49:11.298Z,6.40
2023-01-31T17:51:41.376Z,6.40
2023-01-31T17:54:10.252Z,6.40
2023-01-31T17:56:38.629Z,6.40
2023-01-31T17:59:12.372Z,6.50
2023-01-31T18:01:43.166Z,6.50
2023-01-31T18:04:11.208Z,6.50
2023-01-31T18:06:40.571Z,6.40
2023-01-31T18:09:10.180Z,6.40
2023-01-31T18:11:43.543Z,6.50
2023-01-31T18:14:11.754Z,6.50
2023-01-31T18:16:39.923Z,6.50
2023-01-31T18:19:08.036Z,6.50
2023-01-31T18:21:38.908Z,6.50
2023-01-31T18:24:12.113Z,6.50
2023-01-31T18:26:40.442Z,6.50
2023-01-31T18:29:08.619Z,6.50
2023-01-31T18:31:36.720Z,6.50
2023-01-31T18:34:04.810Z,6.50
2023-01-31T18:36:32.796Z,6.50
2023-01-31T18:39:00.919Z,6.50
2023-01-31T18:41:30.321Z,6.60
2023-01-31T18:43:58.372Z,6.50
2023-01-31T18:46:26.783Z,6.50
2023-01-31T18:48:55.097Z,6.60
2023-01-31T18:51:23.395Z,6.60
2023-01-31T18:53:51.433Z,6.60
2023-01-31T18:56:21.655Z,6.60
2023-01-31T18:58:52.275Z,6.60
2023-01-31T19:01:22.330Z,6.60
2023-01-31T19:03:52.951Z,6.60
2023-01-31T19:06:23.067Z,6.60
2023-01-31T19:08:52.272Z,6.60
2023-01-31T19:11:22.567Z,6.50
2023-01-31T19:13:52.086Z,6.50
2023-01-31T19:16:21.873Z,6.60
2023-01-31T19:18:50.922Z,6.50
2023-01-31T19:21:20.620Z,6.50
2023-01-31T19:23:50.697Z,6.60
2023-01-31T19:26:19.082Z,6.60
2023-01-31T19:28:48.268Z,6.60
2023-01-31T19:31:19.500Z,6.60
2023-01-31T19:33:50.042Z,6.50
2023-01-31T19:36:19.731Z,6.60
2023-01-31T19:38:48.145Z,6.60
2023-01-31T19:41:18.848Z,6.60
2023-01-31T19:43:47.495Z,6.60
2023-01-31T19:46:17.094Z,6.60
2023-01-31T19:48:45.242Z,6.60
2023-01-31T19:51:15.004Z,6.70
2023-01-31T19:53:43.950Z,6.70
2023-01-31T19:56:14.188Z,6.70
2023-01-31T19:58:42.945Z,6.70
2023-01-31T20:01:12.655Z,6.70
2023-01-31T20:03:42.136Z,6.70
2023-01-31T20:06:12.446Z,6.70
2023-01-31T20:08:41.357Z,6.70
2023-01-31T20:11:10.797Z,6.70
2023-01-31T20:13:38.824Z,6.70
2023-01-31T20:16:08.813Z,6.70
2023-01-31T20:18:38.702Z,6.70
2023-01-31T20:21:08.750Z,6.70
2023-01-31T20:23:37.830Z,6.70
2023-01-31T20:26:06.067Z,6.70
2023-01-31T20:28:34.794Z,6.70
2023-01-31T20:31:06.226Z,6.70
2023-01-31T20:33:34.630Z,6.80
2023-01-31T20:36:03.002Z,6.70
2023-01-31T20:38:32.474Z,6.80
2023-01-31T20:41:00.601Z,6.70
2023-01-31T20:43:28.969Z,6.70
2023-01-31T20:46:03.707Z,6.70
2023-01-31T20:48:31.733Z,6.70
2023-01-31T20:50:59.819Z,6.70
2023-01-31T20:53:29.295Z,6.70
2023-01-31T20:56:00.797Z,6.70
2023-01-31T20:58:31.687Z,6.70
2023-01-31T21:01:00.851Z,6.70
2023-01-31T21:03:30.216Z,6.70
2023-01-31T21:06:00.027Z,6.70
2023-01-31T21:08:29.141Z,6.60
2023-01-31T21:11:00.038Z,6.70
2023-01-31T21:13:29.991Z,6.70
2023-01-31T21:16:00.227Z,6.70
2023-01-31T21:18:29.955Z,6.70
2023-01-31T21:20:58.163Z,6.70
2023-01-31T21:23:26.551Z,6.70
2023-01-31T21:25:54.559Z,6.70
2023-01-31T21:28:27.167Z,6.70
2023-01-31T21:30:59.790Z,6.70
2023-01-31T21:33:28.153Z,6.60
2023-01-31T21:35:58.103Z,6.70
2023-01-31T21:38:26.391Z,6.70
2023-01-31T21:41:14.907Z,6.70
2023-01-31T21:43:43.365Z,6.70
2023-01-31T21:46:11.550Z,6.70
2023-01-31T21:48:40.097Z,6.70
2023-01-31T21:51:10.709Z,6.70
2023-01-31T21:53:39.410Z,6.70
2023-01-31T21:56:08.936Z,6.70
2023-01-31T21:58:38.819Z,6.70
2023-01-31T22:01:11.302Z,6.70
2023-01-31T22:03:42.486Z,6.70
2023-01-31T22:06:12.031Z,6.70
2023-01-31T22:08:40.452Z,6.70
2023-01-31T22:11:10.693Z,6.70
2023-01-31T22:13:39.555Z,6.70
2023-01-31T22:16:10.873Z,6.70
2023-01-31T22:18:40.043Z,6.70
2023-01-31T22:21:09.756Z,6.70
2023-01-31T22:23:39.752Z,6.70
2023-01-31T22:26:09.882Z,6.70
2023-01-31T22:28:38.424Z,6.60
2023-01-31T22:31:09.125Z,6.60
2023-01-31T22:33:39.327Z,6.70
2023-01-31T22:36:10.026Z,6.60
2023-01-31T22:38:38.520Z,6.70
2023-01-31T22:41:09.446Z,6.60
2023-01-31T22:43:38.810Z,6.60
2023-01-31T22:46:09.654Z,6.60
2023-01-31T22:48:37.719Z,6.60
2023-01-31T22:51:07.798Z,6.70
2023-01-31T22:53:37.529Z,6.70
2023-01-31T22:56:07.399Z,6.70
2023-01-31T22:58:35.617Z,6.70
2023-01-31T23:01:03.781Z,6.60
2023-01-31T23:03:33.180Z,6.70
2023-01-31T23:06:03.155Z,6.70
2023-01-31T23:08:31.276Z,6.70
2023-01-31T23:11:04.520Z,6.70
2023-01-31T23:13:32.940Z,6.70
2023-01-31T23:16:01.078Z,6.70
2023-01-31T23:18:29.272Z,6.70
2023-01-31T23:21:06.322Z,6.70
2023-01-31T23:23:34.866Z,6.70
2023-01-31T23:26:03.682Z,6.70
2023-01-31T23:28:32.035Z,6.70
2023-01-31T23:31:00.253Z,6.70
2023-01-31T23:33:28.841Z,6.70
2023-01-31T23:35:58.244Z,6.70
2023-01-31T23:38:26.377Z,6.70
2023-01-31T23:40:55.400Z,6.70
2023-01-31T23:43:24.007Z,6.70
2023-01-31T23:45:52.207Z,6.70
2023-01-31T23:48:20.385Z,6.70
2023-01-31T23:50:48.422Z,6.70
2023-01-31T23:53:17.805Z,6.70
2023-01-31T23:55:45.841Z,6.70
2023-01-31T23:58:13.804Z,6.70
